createdAt,value
2022-12-11T00:01:10.786Z,22.02
2022-12-11T00:03:42.393Z,20.00
2022-12-11T00:06:11.746Z,19.40
2022-12-11T00:08:39.853Z,21.70
2022-12-11T00:11:08.965Z,20.75
2022-12-11T00:13:37.106Z,20.25
2022-12-11T00:16:04.900Z,20.05
2022-12-11T00:18:34.291Z,21.23
2022-12-11T00:21:01.912Z,19.63
2022-12-11T00:23:29.821Z,19.70
2022-12-11T00:25:59.890Z,19.13
2022-12-11T00:28:27.604Z,20.02
2022-12-11T00:30:55.175Z,17.73
2022-12-11T00:33:23.195Z,21.33
2022-12-11T00:35:52.196Z,19.08
2022-12-11T00:38:21.763Z,21.33
2022-12-11T00:40:49.333Z,20.45
2022-12-11T00:43:17.750Z,21.60
2022-12-11T00:45:47.449Z,21.95
2022-12-11T00:48:15.437Z,21.80
2022-12-11T00:50:43.210Z,18.17
2022-12-11T00:53:12.531Z,19.67
2022-12-11T00:55:41.867Z,18.90
2022-12-11T00:58:11.330Z,21.05
2022-12-11T01:00:39.565Z,19.73
2022-12-11T01:03:07.524Z,18.05
2022-12-11T01:05:35.164Z,20.13
2022-12-11T01:08:03.605Z,18.40
2022-12-11T01:10:32.716Z,17.52
2022-12-11T01:13:03.259Z,17.30
2022-12-11T01:15:32.762Z,18.98
2022-12-11T01:18:00.419Z,18.25
2022-12-11T01:20:30.282Z,19.42
2022-12-11T01:23:00.546Z,18.40
2022-12-11T01:25:28.429Z,22.30
2022-12-11T01:27:57.398Z,19.88
2022-12-11T01:30:28.271Z,18.38
2022-12-11T01:32:56.031Z,18.63
2022-12-11T01:35:23.620Z,17.77
2022-12-11T01:37:51.410Z,17.88
2022-12-11T01:40:20.366Z,19.17
2022-12-11T01:42:48.350Z,17.92
2022-12-11T01:45:29.776Z,15.93
2022-12-11T01:48:01.974Z,16.58
2022-12-11T01:50:31.413Z,17.88
2022-12-11T01:53:04.216Z,16.10
2022-12-11T01:55:32.797Z,17.30
2022-12-11T01:58:02.376Z,16.45
2022-12-11T02:00:31.263Z,17.60
2022-12-11T02:02:59.097Z,17.52
2022-12-11T02:05:26.419Z,17.48
2022-12-11T02:07:57.643Z,18.88
2022-12-11T02:10:32.992Z,17.10
2022-12-11T02:13:07.713Z,16.00
2022-12-11T02:15:42.815Z,16.80
2022-12-11T02:18:19.179Z,17.63
2022-12-11T02:20:54.779Z,16.75
2022-12-11T02:23:55.443Z,17.15
2022-12-11T02:26:52.004Z,16.92
2022-12-11T02:29:26.217Z,15.63
2022-12-11T02:32:00.015Z,16.40
2022-12-11T02:34:32.523Z,15.82
2022-12-11T02:37:04.504Z,16.33
2022-12-11T02:39:36.014Z,15.63
2022-12-11T02:42:05.139Z,17.25
2022-12-11T02:44:36.090Z,17.58
2022-12-11T02:47:07.116Z,17.35
2022-12-11T02:49:35.897Z,15.90
2022-12-11T02:52:05.398Z,15.10
2022-12-11T02:54:37.311Z,16.13
2022-12-11T02:57:09.647Z,15.50
2022-12-11T02:59:41.775Z,15.75
2022-12-11T03:02:09.892Z,16.13
2022-12-11T03:04:38.027Z,15.93
2022-12-11T03:07:10.407Z,15.68
2022-12-11T03:09:38.974Z,14.63
2022-12-11T03:12:07.957Z,16.33
2022-12-11T03:14:36.239Z,14.98
2022-12-11T03:17:12.332Z,14.95
2022-12-11T03:19:44.951Z,16.77
2022-12-11T03:22:17.574Z,16.00
2022-12-11T03:27:22.601Z,15.05
2022-12-11T03:29:57.333Z,16.10
2022-12-11T03:32:31.333Z,15.27
2022-12-11T03:35:03.970Z,16.67
2022-12-11T03:37:38.105Z,16.50
2022-12-11T03:40:10.841Z,15.57
2022-12-11T03:42:40.459Z,15.13
2022-12-11T03:45:09.599Z,15.48
2022-12-11T03:47:41.775Z,14.60
2022-12-11T03:50:12.534Z,14.75
2022-12-11T03:52:45.729Z,14.98
2022-12-11T03:55:17.111Z,15.52
2022-12-11T03:57:44.601Z,15.23
2022-12-11T04:00:15.396Z,13.88
2022-12-11T04:02:45.248Z,16.38
2022-12-11T04:05:13.733Z,14.25
2022-12-11T04:07:41.293Z,16.25
2022-12-11T04:10:10.379Z,15.60
2022-12-11T04:12:37.715Z,16.70
2022-12-11T04:15:06.281Z,15.90
2022-12-11T04:17:36.602Z,14.10
2022-12-11T04:20:07.168Z,14.63
2022-12-11T04:22:34.374Z,15.27
2022-12-11T04:25:03.034Z,14.40
2022-12-11T04:27:30.457Z,15.20
2022-12-11T04:29:58.131Z,13.73
2022-12-11T04:32:25.468Z,13.20
2022-12-11T04:34:53.116Z,12.95
2022-12-11T04:37:21.917Z,13.32
2022-12-11T04:39:49.817Z,14.25
2022-12-11T04:42:17.528Z,14.40
2022-12-11T04:44:45.499Z,15.02
2022-12-11T04:47:12.776Z,13.80
2022-12-11T04:49:40.395Z,13.68
2022-12-11T04:52:07.693Z,15.85
2022-12-11T04:54:36.846Z,13.68
2022-12-11T04:57:04.400Z,13.38
2022-12-11T04:59:32.251Z,13.73
2022-12-11T05:01:59.698Z,15.05
2022-12-11T05:04:31.405Z,14.90
2022-12-11T05:06:59.251Z,14.02
2022-12-11T05:09:27.674Z,13.77
2022-12-11T05:11:56.678Z,14.10
2022-12-11T05:14:24.445Z,14.48
2022-12-11T05:16:51.903Z,13.45
2022-12-11T05:19:19.715Z,13.45
2022-12-11T05:21:47.326Z,14.30
2022-12-11T05:24:15.161Z,13.02
2022-12-11T05:26:42.680Z,13.95
2022-12-11T05:29:11.785Z,12.98
2022-12-11T05:31:39.208Z,13.27
2022-12-11T05:34:06.997Z,12.73
2022-12-11T05:36:34.986Z,12.77
2022-12-11T05:39:04.762Z,13.35
2022-12-11T05:41:32.835Z,12.50
2022-12-11T05:44:00.880Z,11.98
2022-12-11T05:46:31.346Z,12.95
2022-12-11T05:49:00.935Z,13.23
2022-12-11T05:51:29.612Z,12.02
2022-12-11T05:53:58.232Z,13.80
2022-12-11T05:56:27.239Z,11.95
2022-12-11T05:58:56.493Z,11.90
2022-12-11T06:01:26.297Z,11.60
2022-12-11T06:03:56.826Z,12.65
2022-12-11T06:06:24.874Z,12.60
2022-12-11T06:08:53.017Z,12.02
2022-12-11T06:11:23.927Z,11.57
2022-12-11T06:13:52.818Z,13.25
2022-12-11T06:16:21.277Z,11.85
2022-12-11T06:18:49.215Z,11.50
2022-12-11T06:21:20.345Z,10.55
2022-12-11T06:23:50.060Z,11.13
2022-12-11T06:26:18.366Z,12.45
2022-12-11T06:28:47.061Z,12.95
2022-12-11T06:31:15.581Z,12.55
2022-12-11T06:33:43.964Z,11.02
2022-12-11T06:36:13.252Z,13.82
2022-12-11T06:38:42.689Z,13.80
2022-12-11T06:41:10.455Z,13.10
2022-12-11T06:43:39.871Z,13.05
2022-12-11T06:46:09.054Z,12.68
2022-12-11T06:48:37.166Z,13.93
2022-12-11T06:51:08.868Z,12.00
2022-12-11T06:53:36.940Z,12.00
2022-12-11T06:56:07.486Z,13.43
2022-12-11T06:58:36.244Z,12.52
2022-12-11T07:01:05.002Z,13.07
2022-12-11T07:03:32.843Z,12.98
2022-12-11T07:06:01.488Z,12.55
2022-12-11T07:08:29.641Z,13.90
2022-12-11T07:11:03.454Z,10.77
2022-12-11T07:13:32.622Z,12.40
2022-12-11T07:16:00.172Z,11.40
2022-12-11T07:18:28.089Z,12.93
2022-12-11T07:20:57.680Z,11.93
2022-12-11T07:23:25.731Z,12.48
2022-12-11T07:25:53.254Z,12.90
2022-12-11T07:28:20.998Z,13.43
2022-12-11T07:30:49.950Z,13.48
2022-12-11T07:33:17.740Z,12.70
2022-12-11T07:35:45.050Z,11.43
2022-12-11T07:38:12.828Z,12.70
2022-12-11T07:40:40.221Z,12.85
2022-12-11T07:43:08.044Z,13.98
2022-12-11T07:45:35.405Z,14.38
2022-12-11T07:48:04.994Z,13.35
2022-12-11T07:50:36.602Z,11.43
2022-12-11T07:53:07.415Z,11.48
2022-12-11T07:55:34.698Z,12.32
2022-12-11T07:58:02.616Z,13.10
2022-12-11T08:00:29.950Z,11.25
2022-12-11T08:02:57.711Z,12.80
2022-12-11T08:05:26.432Z,12.68
2022-12-11T08:07:54.205Z,11.88
2022-12-11T08:10:21.694Z,11.38
2022-12-11T08:12:49.416Z,12.63
2022-12-11T08:15:16.972Z,11.32
2022-12-11T08:17:44.648Z,11.00
2022-12-11T08:20:14.639Z,12.20
2022-12-11T08:22:43.892Z,11.32
2022-12-11T08:25:11.691Z,11.73
2022-12-11T08:27:39.623Z,11.07
2022-12-11T08:30:08.164Z,10.45
2022-12-11T08:32:35.864Z,10.00
2022-12-11T08:35:03.846Z,11.07
2022-12-11T08:37:32.091Z,10.25
2022-12-11T08:40:01.042Z,11.63
2022-12-11T08:42:28.710Z,10.80
2022-12-11T08:44:56.375Z,9.20
2022-12-11T08:47:24.195Z,10.05
2022-12-11T08:49:51.619Z,11.25
2022-12-11T08:52:19.647Z,10.40
2022-12-11T08:54:47.045Z,9.80
2022-12-11T08:57:16.283Z,10.20
2022-12-11T08:59:43.678Z,11.05
2022-12-11T09:02:12.269Z,9.95
2022-12-11T09:04:40.075Z,10.02
2022-12-11T09:07:07.832Z,10.25
2022-12-11T09:09:35.224Z,10.15
2022-12-11T09:12:03.051Z,10.63
2022-12-11T09:14:31.892Z,9.38
2022-12-11T09:16:59.649Z,10.32
2022-12-11T09:19:32.011Z,9.25
2022-12-11T09:22:00.101Z,6.88
2022-12-11T09:24:27.520Z,9.85
2022-12-11T09:26:55.549Z,9.63
2022-12-11T09:29:22.851Z,7.72
2022-12-11T09:31:51.989Z,8.80
2022-12-11T09:34:19.459Z,9.15
2022-12-11T09:36:47.148Z,8.95
2022-12-11T09:39:15.524Z,8.43
2022-12-11T09:41:53.135Z,9.25
2022-12-11T09:44:31.109Z,7.55
2022-12-11T09:47:00.864Z,9.68
2022-12-11T09:49:35.069Z,9.68
2022-12-11T09:52:10.577Z,8.95
2022-12-11T09:54:43.049Z,7.68
2022-12-11T09:57:20.348Z,9.07
2022-12-11T10:00:05.116Z,7.85
2022-12-11T10:05:18.066Z,8.40
2022-12-11T10:07:51.899Z,7.53
2022-12-11T10:10:26.125Z,8.05
2022-12-11T10:13:04.161Z,7.72
2022-12-11T10:15:39.748Z,8.90
2022-12-11T10:18:16.188Z,7.40
2022-12-11T10:20:44.026Z,9.57
2022-12-11T10:23:19.517Z,9.38
2022-12-11T10:25:51.712Z,9.55
2022-12-11T10:28:20.867Z,7.63
2022-12-11T10:30:53.252Z,7.43
2022-12-11T10:33:26.954Z,8.98
2022-12-11T10:35:56.556Z,9.80
2022-12-11T10:38:28.463Z,9.25
2022-12-11T10:40:59.439Z,9.20
2022-12-11T10:43:35.234Z,8.63
2022-12-11T10:46:03.447Z,8.73
2022-12-11T10:48:33.309Z,9.18
2022-12-11T10:51:03.429Z,10.80
2022-12-11T10:53:33.573Z,10.30
2022-12-11T10:56:03.079Z,9.90
2022-12-11T10:58:32.671Z,10.50
2022-12-11T11:01:09.106Z,10.45
2022-12-11T11:03:52.131Z,9.35
2022-12-11T11:06:21.265Z,8.38
2022-12-11T11:08:50.855Z,8.27
2022-12-11T11:11:26.932Z,7.82
2022-12-11T11:14:22.841Z,8.05
2022-12-11T11:16:52.776Z,7.03
2022-12-11T11:19:24.899Z,8.73
2022-12-11T11:21:54.262Z,7.55
2022-12-11T11:24:28.007Z,7.88
2022-12-11T11:27:12.703Z,7.15
2022-12-11T11:29:42.105Z,7.53
2022-12-11T11:32:19.365Z,9.15
2022-12-11T11:34:48.745Z,6.95
2022-12-11T11:37:32.516Z,7.82
2022-12-11T11:40:08.124Z,7.93
2022-12-11T11:42:45.411Z,6.10
2022-12-11T11:45:17.701Z,5.78
2022-12-11T11:47:55.774Z,7.00
2022-12-11T11:50:30.083Z,6.95
2022-12-11T11:53:02.854Z,6.28
2022-12-11T11:55:40.063Z,7.20
2022-12-11T11:58:12.691Z,9.25
2022-12-11T12:00:40.521Z,5.88
2022-12-11T12:03:12.779Z,6.07
2022-12-11T12:05:51.327Z,6.28
2022-12-11T12:08:32.091Z,6.07
2022-12-11T12:11:07.414Z,4.32
2022-12-11T12:13:49.456Z,5.35
2022-12-11T12:16:52.082Z,6.00
2022-12-11T12:19:31.983Z,4.70
2022-12-11T12:22:12.282Z,6.03
2022-12-11T12:24:48.903Z,4.97
2022-12-11T12:27:50.919Z,6.18
2022-12-11T12:30:16.138Z,7.60
2022-12-11T12:32:59.482Z,5.97
2022-12-11T12:35:35.268Z,6.35
2022-12-11T12:38:18.729Z,5.85
2022-12-11T12:41:00.186Z,6.68
2022-12-11T12:43:52.878Z,7.00
2022-12-11T12:46:29.163Z,6.80
2022-12-11T12:49:00.256Z,5.63
2022-12-11T12:51:29.199Z,6.00
2022-12-11T12:54:00.554Z,6.80
2022-12-11T12:56:31.963Z,5.88
2022-12-11T12:58:59.816Z,7.03
2022-12-11T13:01:30.530Z,6.68
2022-12-11T13:04:00.951Z,7.65
2022-12-11T13:06:31.382Z,9.32
2022-12-11T13:09:13.931Z,8.95
2022-12-11T13:11:41.266Z,7.95
2022-12-11T13:14:24.979Z,6.15
2022-12-11T13:16:53.608Z,7.53
2022-12-11T13:19:28.295Z,6.75
2022-12-11T13:21:57.688Z,7.28
2022-12-11T13:24:28.935Z,7.80
2022-12-11T13:26:56.878Z,6.70
2022-12-11T13:29:33.998Z,8.25
2022-12-11T13:32:03.450Z,6.97
2022-12-11T13:34:33.595Z,7.05
2022-12-11T13:37:02.649Z,7.63
2022-12-11T13:39:35.037Z,5.88
2022-12-11T13:42:06.934Z,7.78
2022-12-11T13:44:39.274Z,8.18
2022-12-11T13:47:12.725Z,8.45
2022-12-11T13:49:43.876Z,7.40
2022-12-11T13:52:18.965Z,7.50
2022-12-11T13:54:52.393Z,7.10
2022-12-11T13:59:50.295Z,6.13
2022-12-11T14:02:21.558Z,5.88
2022-12-11T14:04:52.766Z,6.97
2022-12-11T14:07:25.402Z,7.40
2022-12-11T14:10:00.956Z,5.35
2022-12-11T14:12:29.917Z,6.38
2022-12-11T14:15:03.049Z,6.05
2022-12-11T14:17:33.154Z,5.85
2022-12-11T14:20:04.478Z,6.40
2022-12-11T14:22:32.340Z,6.43
2022-12-11T14:25:03.113Z,7.40
2022-12-11T14:27:31.075Z,5.53
2022-12-11T14:30:09.800Z,6.13
2022-12-11T14:32:43.189Z,6.10
2022-12-11T14:35:21.469Z,6.43
2022-12-11T14:37:49.359Z,6.97
2022-12-11T14:40:22.886Z,7.20
2022-12-11T14:42:59.974Z,6.50
2022-12-11T14:45:34.039Z,6.82
2022-12-11T14:48:04.398Z,5.97
2022-12-11T14:50:39.493Z,5.55
2022-12-11T14:53:11.143Z,4.82
2022-12-11T14:55:41.976Z,5.35
2022-12-11T14:58:17.899Z,6.25
2022-12-11T15:00:57.463Z,5.07
2022-12-11T15:05:54.733Z,5.93
2022-12-11T15:08:27.691Z,5.72
2022-12-11T15:11:04.658Z,4.15
2022-12-11T15:13:33.131Z,5.50
2022-12-11T15:16:02.104Z,6.22
2022-12-11T15:18:32.691Z,6.05
2022-12-11T15:21:05.259Z,5.93
2022-12-11T15:23:37.306Z,5.82
2022-12-11T15:26:06.643Z,5.70
2022-12-11T15:28:36.718Z,6.22
2022-12-11T15:31:06.937Z,4.22
2022-12-11T15:33:46.442Z,5.90
2022-12-11T15:36:25.566Z,5.55
2022-12-11T15:38:53.411Z,6.07
2022-12-11T15:41:25.071Z,7.05
2022-12-11T15:43:58.534Z,6.35
2022-12-11T15:46:27.901Z,6.75
2022-12-11T15:48:57.024Z,5.90
2022-12-11T15:51:24.957Z,6.47
2022-12-11T15:53:54.363Z,5.50
2022-12-11T15:56:25.099Z,5.75
2022-12-11T15:58:52.812Z,5.75
2022-12-11T16:01:21.392Z,6.13
2022-12-11T16:03:48.865Z,6.93
2022-12-11T16:06:16.929Z,6.20
2022-12-11T16:08:45.049Z,7.15
2022-12-11T16:11:13.895Z,6.30
2022-12-11T16:13:42.715Z,6.43
2022-12-11T16:16:11.321Z,6.07
2022-12-11T16:18:38.772Z,6.43
2022-12-11T16:21:07.081Z,6.60
2022-12-11T16:23:34.445Z,7.15
2022-12-11T16:26:06.857Z,5.78
2022-12-11T16:28:34.389Z,6.32
2022-12-11T16:31:03.757Z,6.75
2022-12-11T16:33:31.234Z,6.68
2022-12-11T16:35:58.955Z,5.78
2022-12-11T16:38:26.526Z,5.47
2022-12-11T16:41:00.401Z,5.38
2022-12-11T16:43:27.888Z,4.47
2022-12-11T16:45:55.708Z,4.70
2022-12-11T16:48:24.958Z,5.78
2022-12-11T16:50:53.472Z,5.47
2022-12-11T16:53:21.099Z,6.10
2022-12-11T16:55:49.069Z,5.00
2022-12-11T16:58:16.507Z,5.20
2022-12-11T17:00:44.266Z,6.10
2022-12-11T17:03:11.682Z,5.25
2022-12-11T17:05:41.703Z,5.20
2022-12-11T17:08:09.705Z,5.85
2022-12-11T17:10:40.468Z,5.20
2022-12-11T17:13:07.832Z,5.53
2022-12-11T17:15:40.094Z,5.85
2022-12-11T17:18:07.692Z,6.43
2022-12-11T17:20:39.498Z,5.25
2022-12-11T17:23:08.849Z,6.60
2022-12-11T17:25:40.369Z,5.32
2022-12-11T17:28:07.866Z,6.53
2022-12-11T17:30:39.191Z,4.95
2022-12-11T17:33:06.763Z,6.75
2022-12-11T17:35:34.609Z,5.60
2022-12-11T17:38:02.122Z,6.40
2022-12-11T17:40:31.293Z,6.97
2022-12-11T17:42:59.127Z,6.88
2022-12-11T17:45:26.906Z,6.38
2022-12-11T17:47:54.528Z,5.57
2022-12-11T17:50:23.000Z,6.32
2022-12-11T17:52:50.545Z,4.50
2022-12-11T17:55:18.542Z,6.90
2022-12-11T17:57:50.239Z,6.55
2022-12-11T18:00:18.958Z,5.95
2022-12-11T18:02:46.386Z,8.05
2022-12-11T18:05:15.835Z,7.82
2022-12-11T18:07:43.305Z,6.53
2022-12-11T18:10:11.702Z,6.80
2022-12-11T18:12:39.271Z,7.38
2022-12-11T18:15:09.772Z,6.40
2022-12-11T18:17:37.423Z,6.85
2022-12-11T18:20:05.741Z,6.85
2022-12-11T18:22:33.197Z,7.85
2022-12-11T18:25:03.952Z,7.38
2022-12-11T18:27:36.836Z,7.10
2022-12-11T18:30:05.355Z,6.93
2022-12-11T18:32:34.446Z,5.93
2022-12-11T18:35:02.321Z,6.55
2022-12-11T18:37:30.255Z,6.72
2022-12-11T18:39:58.582Z,5.60
2022-12-11T18:42:33.840Z,6.50
2022-12-11T18:45:02.012Z,6.70
2022-12-11T18:47:29.336Z,8.35
2022-12-11T18:50:03.951Z,6.53
2022-12-11T18:52:34.709Z,5.80
2022-12-11T18:55:02.559Z,7.45
2022-12-11T18:57:29.908Z,7.47
2022-12-11T18:59:57.631Z,6.55
2022-12-11T19:02:25.089Z,5.70
2022-12-11T19:04:53.013Z,7.15
2022-12-11T19:07:21.845Z,7.13
2022-12-11T19:09:49.722Z,6.50
2022-12-11T19:12:18.747Z,6.15
2022-12-11T19:14:46.538Z,7.45
2022-12-11T19:17:14.055Z,6.25
2022-12-11T19:19:42.133Z,6.97
2022-12-11T19:22:10.413Z,7.15
2022-12-11T19:24:40.943Z,6.95
2022-12-11T19:27:13.188Z,8.15
2022-12-11T19:32:09.218Z,5.80
2022-12-11T19:34:37.033Z,7.97
2022-12-11T19:37:04.699Z,7.18
2022-12-11T19:39:32.529Z,7.28
2022-12-11T19:42:01.388Z,6.75
2022-12-11T19:44:29.115Z,7.03
2022-12-11T19:46:56.633Z,6.68
2022-12-11T19:49:24.579Z,5.28
2022-12-11T19:51:52.029Z,7.55
2022-12-11T19:54:19.871Z,7.25
2022-12-11T19:56:47.483Z,7.00
2022-12-11T19:59:17.580Z,6.90
2022-12-11T20:01:46.676Z,7.03
2022-12-11T20:04:16.667Z,6.38
2022-12-11T20:06:45.781Z,8.23
2022-12-11T20:09:14.607Z,7.93
2022-12-11T20:11:43.891Z,7.72
2022-12-11T20:14:19.303Z,6.70
2022-12-11T20:17:09.772Z,5.60
2022-12-11T20:19:35.182Z,6.63
2022-12-11T20:22:02.725Z,6.53
2022-12-11T20:24:30.425Z,6.97
2022-12-11T20:26:57.747Z,7.90
2022-12-11T20:29:27.170Z,7.90
2022-12-11T20:31:54.623Z,7.20
2022-12-11T20:34:22.530Z,7.95
2022-12-11T20:36:52.007Z,7.15
2022-12-11T20:39:19.823Z,6.97
2022-12-11T20:41:47.448Z,9.27
2022-12-11T20:44:15.558Z,6.32
2022-12-11T20:46:44.466Z,6.68
2022-12-11T20:49:12.097Z,7.20
2022-12-11T20:51:39.693Z,7.53
2022-12-11T20:54:07.664Z,6.22
2022-12-11T20:56:35.020Z,7.75
2022-12-11T20:59:02.939Z,7.55
2022-12-11T21:01:32.201Z,8.88
2022-12-11T21:04:01.697Z,6.43
2022-12-11T21:06:31.960Z,7.25
2022-12-11T21:09:04.958Z,7.95
2022-12-11T21:11:32.334Z,7.75
2022-12-11T21:14:00.199Z,7.70
2022-12-11T21:16:28.600Z,7.28
2022-12-11T21:18:56.974Z,6.15
2022-12-11T21:21:26.143Z,8.43
2022-12-11T21:23:53.868Z,7.53
2022-12-11T21:26:21.308Z,7.75
2022-12-11T21:28:49.141Z,8.20
2022-12-11T21:31:18.262Z,7.40
2022-12-11T21:33:47.161Z,7.35
2022-12-11T21:36:15.226Z,8.90
2022-12-11T21:38:45.144Z,8.70
2022-12-11T21:41:14.661Z,8.18
2022-12-11T21:44:14.627Z,7.70
2022-12-11T21:46:30.575Z,8.85
2022-12-11T21:48:58.570Z,7.95
2022-12-11T21:51:34.095Z,5.97
2022-12-11T21:54:05.881Z,7.00
2022-12-11T21:56:33.469Z,7.65
2022-12-11T21:59:01.140Z,8.05
2022-12-11T22:01:30.754Z,6.47
2022-12-11T22:03:59.262Z,7.97
2022-12-11T22:06:27.047Z,9.38
2022-12-11T22:08:54.904Z,8.43
2022-12-11T22:11:27.076Z,7.50
2022-12-11T22:13:54.943Z,8.07
2022-12-11T22:16:23.025Z,8.95
2022-12-11T22:18:50.848Z,9.05
2022-12-11T22:21:18.592Z,8.68
2022-12-11T22:23:46.542Z,7.80
2022-12-11T22:26:16.882Z,8.25
2022-12-11T22:28:46.085Z,7.97
2022-12-11T22:31:15.192Z,8.90
2022-12-11T22:33:43.306Z,7.30
2022-12-11T22:36:11.586Z,8.93
2022-12-11T22:38:39.674Z,8.05
2022-12-11T22:41:10.523Z,7.93
2022-12-11T22:43:38.286Z,8.55
2022-12-11T22:46:07.156Z,7.45
2022-12-11T22:48:37.294Z,8.23
2022-12-11T22:51:05.654Z,8.13
2022-12-11T22:53:33.363Z,9.13
2022-12-11T22:56:04.429Z,8.43
2022-12-11T22:58:32.724Z,8.68
2022-12-11T23:01:00.252Z,9.23
2022-12-11T23:03:29.844Z,7.47
2022-12-11T23:06:00.749Z,8.48
2022-12-11T23:08:31.290Z,7.85
2022-12-11T23:10:58.763Z,8.73
2022-12-11T23:13:26.457Z,8.15
2022-12-11T23:15:53.757Z,7.95
2022-12-11T23:18:21.518Z,7.55
2022-12-11T23:20:50.760Z,8.32
2022-12-11T23:23:18.491Z,8.20
2022-12-11T23:25:45.911Z,9.43
2022-12-11T23:28:13.716Z,8.60
2022-12-11T23:30:44.096Z,8.52
2022-12-11T23:33:11.852Z,8.55
2022-12-11T23:35:39.172Z,7.53
2022-12-11T23:38:08.398Z,9.65
2022-12-11T23:40:36.371Z,8.60
2022-12-11T23:43:04.099Z,8.32
2022-12-11T23:45:31.263Z,8.45
2022-12-11T23:47:59.008Z,8.13
2022-12-11T23:50:26.448Z,7.97
2022-12-11T23:52:54.447Z,8.50
2022-12-11T23:55:23.483Z,8.93
2022-12-11T23:57:51.117Z,7.65
